sensor_id;sensor_type;location;lat;lon;timestamp;pressure;altitude;pressure_sealevel;temperature;humidity
77366;BME280;66430;50.182;11.704;2023-05-07T00:01:54;94826.36;;;12.99;44.02
77366;BME280;66430;50.182;11.704;2023-05-07T00:04:20;94824.86;;;12.91;43.61
77366;BME280;66430;50.182;11.704;2023-05-07T00:06:46;94826.66;;;12.97;43.32
77366;BME280;66430;50.182;11.704;2023-05-07T00:09:11;94828.52;;;12.93;43.34
77366;BME280;66430;50.182;11.704;2023-05-07T00:11:36;94831.18;;;13.00;43.23
77366;BME280;66430;50.182;11.704;2023-05-07T00:14:02;94830.75;;;12.81;42.87
77366;BME280;66430;50.182;11.704;2023-05-07T00:16:27;94830.86;;;13.16;42.85
77366;BME280;66430;50.182;11.704;2023-05-07T00:18:53;94828.15;;;12.60;44.09
77366;BME280;66430;50.182;11.704;2023-05-07T00:21:19;94825.04;;;12.78;44.24
77366;BME280;66430;50.182;11.704;2023-05-07T00:23:44;94822.51;;;12.35;45.22
77366;BME280;66430;50.182;11.704;2023-05-07T00:26:10;94825.17;;;12.41;44.60
77366;BME280;66430;50.182;11.704;2023-05-07T00:28:36;94825.62;;;12.60;44.44
77366;BME280;66430;50.182;11.704;2023-05-07T00:31:00;94821.06;;;12.70;44.76
77366;BME280;66430;50.182;11.704;2023-05-07T00:33:26;94818.14;;;12.71;44.69
77366;BME280;66430;50.182;11.704;2023-05-07T00:35:51;94817.31;;;12.74;44.53
77366;BME280;66430;50.182;11.704;2023-05-07T00:38:17;94813.79;;;12.20;45.35
77366;BME280;66430;50.182;11.704;2023-05-07T00:40:43;94816.41;;;12.13;45.76
77366;BME280;66430;50.182;11.704;2023-05-07T00:43:08;94818.39;;;12.47;45.09
77366;BME280;66430;50.182;11.704;2023-05-07T00:45:33;94821.92;;;12.47;45.04
77366;BME280;66430;50.182;11.704;2023-05-07T00:48:00;94823.48;;;12.44;45.15
77366;BME280;66430;50.182;11.704;2023-05-07T00:50:26;94823.27;;;12.17;44.69
77366;BME280;66430;50.182;11.704;2023-05-07T00:52:50;94820.05;;;12.38;44.67
77366;BME280;66430;50.182;11.704;2023-05-07T00:55:16;94813.87;;;12.20;44.70
77366;BME280;66430;50.182;11.704;2023-05-07T00:57:41;94813.18;;;12.32;44.49
77366;BME280;66430;50.182;11.704;2023-05-07T01:00:07;94813.71;;;12.20;44.51
77366;BME280;66430;50.182;11.704;2023-05-07T01:02:32;94813.07;;;12.36;44.90
77366;BME280;66430;50.182;11.704;2023-05-07T01:04:57;94813.24;;;12.38;44.74
77366;BME280;66430;50.182;11.704;2023-05-07T01:07:23;94808.09;;;12.23;45.08
77366;BME280;66430;50.182;11.704;2023-05-07T01:09:48;94806.73;;;11.70;45.35
77366;BME280;66430;50.182;11.704;2023-05-07T01:12:13;94807.47;;;11.79;45.69
77366;BME280;66430;50.182;11.704;2023-05-07T01:14:39;94806.57;;;11.80;45.19
77366;BME280;66430;50.182;11.704;2023-05-07T01:17:04;94806.74;;;12.07;44.90
77366;BME280;66430;50.182;11.704;2023-05-07T01:19:30;94807.12;;;11.92;44.74
77366;BME280;66430;50.182;11.704;2023-05-07T01:22:01;94805.40;;;12.34;44.46
77366;BME280;66430;50.182;11.704;2023-05-07T01:24:20;94804.37;;;12.23;44.16
77366;BME280;66430;50.182;11.704;2023-05-07T01:26:45;94806.84;;;12.53;43.88
77366;BME280;66430;50.182;11.704;2023-05-07T01:29:11;94806.83;;;12.15;44.03
77366;BME280;66430;50.182;11.704;2023-05-07T01:31:37;94808.07;;;12.33;44.31
77366;BME280;66430;50.182;11.704;2023-05-07T01:34:04;94809.88;;;11.90;44.64
77366;BME280;66430;50.182;11.704;2023-05-07T01:36:29;94806.81;;;11.92;44.56
77366;BME280;66430;50.182;11.704;2023-05-07T01:38:53;94808.13;;;11.76;45.27
77366;BME280;66430;50.182;11.704;2023-05-07T01:41:19;94809.28;;;11.58;45.66
77366;BME280;66430;50.182;11.704;2023-05-07T01:43:45;94812.38;;;11.44;46.15
77366;BME280;66430;50.182;11.704;2023-05-07T01:46:10;94810.34;;;11.81;45.41
77366;BME280;66430;50.182;11.704;2023-05-07T01:48:36;94809.05;;;12.10;44.72
77366;BME280;66430;50.182;11.704;2023-05-07T01:51:02;94813.13;;;12.14;44.41
77366;BME280;66430;50.182;11.704;2023-05-07T01:53:27;94813.12;;;11.90;44.73
77366;BME280;66430;50.182;11.704;2023-05-07T01:55:52;94815.37;;;11.79;44.80
77366;BME280;66430;50.182;11.704;2023-05-07T01:58:17;94813.37;;;11.71;44.90
77366;BME280;66430;50.182;11.704;2023-05-07T02:00:42;94812.59;;;11.29;45.87
77366;BME280;66430;50.182;11.704;2023-05-07T02:03:08;94813.79;;;11.66;46.02
77366;BME280;66430;50.182;11.704;2023-05-07T02:05:34;94813.41;;;11.12;46.53
77366;BME280;66430;50.182;11.704;2023-05-07T02:07:59;94814.60;;;10.96;47.08
77366;BME280;66430;50.182;11.704;2023-05-07T02:10:24;94812.91;;;10.97;46.97
77366;BME280;66430;50.182;11.704;2023-05-07T02:12:50;94811.77;;;11.03;47.00
77366;BME280;66430;50.182;11.704;2023-05-07T02:15:15;94816.95;;;10.72;47.82
77366;BME280;66430;50.182;11.704;2023-05-07T02:20:07;94809.40;;;10.94;47.67
77366;BME280;66430;50.182;11.704;2023-05-07T02:22:31;94803.98;;;10.75;47.80
77366;BME280;66430;50.182;11.704;2023-05-07T02:24:56;94804.95;;;11.19;47.75
77366;BME280;66430;50.182;11.704;2023-05-07T02:27:21;94800.10;;;10.86;47.23
77366;BME280;66430;50.182;11.704;2023-05-07T02:29:47;94793.64;;;11.09;46.66
77366;BME280;66430;50.182;11.704;2023-05-07T02:32:12;94791.83;;;11.75;45.71
77366;BME280;66430;50.182;11.704;2023-05-07T02:34:37;94794.27;;;11.78;45.16
77366;BME280;66430;50.182;11.704;2023-05-07T02:37:03;94796.53;;;11.94;44.84
77366;BME280;66430;50.182;11.704;2023-05-07T02:39:29;94800.39;;;12.10;44.27
77366;BME280;66430;50.182;11.704;2023-05-07T02:41:54;94799.84;;;11.73;44.78
77366;BME280;66430;50.182;11.704;2023-05-07T02:44:19;94796.80;;;11.91;44.26
77366;BME280;66430;50.182;11.704;2023-05-07T02:46:45;94792.11;;;11.36;45.49
77366;BME280;66430;50.182;11.704;2023-05-07T02:49:11;94793.65;;;11.08;46.72
77366;BME280;66430;50.182;11.704;2023-05-07T02:51:36;94790.58;;;10.98;47.42
77366;BME280;66430;50.182;11.704;2023-05-07T02:54:01;94792.28;;;11.03;47.20
77366;BME280;66430;50.182;11.704;2023-05-07T02:56:28;94799.15;;;11.12;46.60
77366;BME280;66430;50.182;11.704;2023-05-07T02:58:53;94795.88;;;11.71;45.76
77366;BME280;66430;50.182;11.704;2023-05-07T03:01:18;94794.89;;;11.51;45.44
77366;BME280;66430;50.182;11.704;2023-05-07T03:03:44;94794.22;;;11.66;45.17
77366;BME280;66430;50.182;11.704;2023-05-07T03:06:09;94794.85;;;11.65;45.22
77366;BME280;66430;50.182;11.704;2023-05-07T03:08:35;94794.60;;;11.32;45.38
77366;BME280;66430;50.182;11.704;2023-05-07T03:11:00;94793.33;;;11.56;45.14
77366;BME280;66430;50.182;11.704;2023-05-07T03:13:25;94798.66;;;11.61;45.07
77366;BME280;66430;50.182;11.704;2023-05-07T03:15:50;94803.61;;;11.28;45.60
77366;BME280;66430;50.182;11.704;2023-05-07T03:18:16;94801.64;;;11.48;45.65
77366;BME280;66430;50.182;11.704;2023-05-07T03:20:41;94798.32;;;11.65;45.25
77366;BME280;66430;50.182;11.704;2023-05-07T03:23:06;94798.80;;;11.22;46.13
77366;BME280;66430;50.182;11.704;2023-05-07T03:25:31;94802.13;;;11.05;46.18
77366;BME280;66430;50.182;11.704;2023-05-07T03:27:57;94802.03;;;11.12;46.41
77366;BME280;66430;50.182;11.704;2023-05-07T03:30:23;94793.79;;;11.15;45.94
77366;BME280;66430;50.182;11.704;2023-05-07T03:32:48;94792.35;;;11.24;46.48
77366;BME280;66430;50.182;11.704;2023-05-07T03:35:14;94796.89;;;11.14;47.09
77366;BME280;66430;50.182;11.704;2023-05-07T03:37:39;94799.81;;;10.71;47.59
77366;BME280;66430;50.182;11.704;2023-05-07T03:40:05;94799.43;;;10.66;48.33
77366;BME280;66430;50.182;11.704;2023-05-07T03:42:30;94798.00;;;10.71;48.89
77366;BME280;66430;50.182;11.704;2023-05-07T03:44:55;94806.47;;;10.22;49.93
77366;BME280;66430;50.182;11.704;2023-05-07T03:47:21;94813.77;;;10.21;50.09
77366;BME280;66430;50.182;11.704;2023-05-07T03:49:50;94813.60;;;10.31;49.95
77366;BME280;66430;50.182;11.704;2023-05-07T03:52:12;94819.61;;;10.33;49.60
77366;BME280;66430;50.182;11.704;2023-05-07T03:54:37;94820.40;;;10.81;48.96
77366;BME280;66430;50.182;11.704;2023-05-07T03:57:03;94820.54;;;10.64;49.16
77366;BME280;66430;50.182;11.704;2023-05-07T03:59:28;94820.37;;;10.41;49.26
77366;BME280;66430;50.182;11.704;2023-05-07T04:01:53;94812.44;;;10.59;49.85
77366;BME280;66430;50.182;11.704;2023-05-07T04:04:19;94805.68;;;10.46;49.72
77366;BME280;66430;50.182;11.704;2023-05-07T04:06:44;94805.42;;;10.59;49.17
77366;BME280;66430;50.182;11.704;2023-05-07T04:09:10;94805.46;;;10.58;49.06
77366;BME280;66430;50.182;11.704;2023-05-07T04:11:35;94817.07;;;10.81;48.80
77366;BME280;66430;50.182;11.704;2023-05-07T04:14:00;94823.63;;;10.48;49.98
77366;BME280;66430;50.182;11.704;2023-05-07T04:16:25;94827.06;;;10.42;50.23
77366;BME280;66430;50.182;11.704;2023-05-07T04:18:51;94827.83;;;10.33;50.56
77366;BME280;66430;50.182;11.704;2023-05-07T04:21:18;94824.18;;;10.24;50.62
77366;BME280;66430;50.182;11.704;2023-05-07T04:23:42;94822.57;;;10.07;51.53
77366;BME280;66430;50.182;11.704;2023-05-07T04:26:08;94825.37;;;10.24;51.52
77366;BME280;66430;50.182;11.704;2023-05-07T04:28:35;94826.37;;;10.34;51.81
77366;BME280;66430;50.182;11.704;2023-05-07T04:30:59;94830.61;;;9.97;52.00
77366;BME280;66430;50.182;11.704;2023-05-07T04:33:24;94828.58;;;9.99;52.28
77366;BME280;66430;50.182;11.704;2023-05-07T04:35:50;94831.21;;;9.94;52.05
77366;BME280;66430;50.182;11.704;2023-05-07T04:38:15;94833.86;;;10.23;51.98
77366;BME280;66430;50.182;11.704;2023-05-07T04:40:41;94833.28;;;10.05;52.28
77366;BME280;66430;50.182;11.704;2023-05-07T04:43:06;94840.34;;;10.43;52.19
77366;BME280;66430;50.182;11.704;2023-05-07T04:45:32;94845.64;;;10.23;52.39
77366;BME280;66430;50.182;11.704;2023-05-07T04:47:57;94840.98;;;10.42;52.39
77366;BME280;66430;50.182;11.704;2023-05-07T04:50:22;94835.71;;;10.14;52.06
77366;BME280;66430;50.182;11.704;2023-05-07T04:52:48;94838.56;;;10.44;51.55
77366;BME280;66430;50.182;11.704;2023-05-07T04:55:13;94838.73;;;10.61;51.28
77366;BME280;66430;50.182;11.704;2023-05-07T04:57:38;94846.49;;;10.32;51.95
77366;BME280;66430;50.182;11.704;2023-05-07T05:00:05;94852.47;;;10.00;52.41
77366;BME280;66430;50.182;11.704;2023-05-07T05:02:30;94857.86;;;10.44;52.18
77366;BME280;66430;50.182;11.704;2023-05-07T05:04:55;94855.29;;;10.14;52.65
77366;BME280;66430;50.182;11.704;2023-05-07T05:07:20;94856.55;;;10.15;53.18
77366;BME280;66430;50.182;11.704;2023-05-07T05:09:46;94859.96;;;10.21;53.10
77366;BME280;66430;50.182;11.704;2023-05-07T05:12:11;94862.78;;;10.15;53.23
77366;BME280;66430;50.182;11.704;2023-05-07T05:14:36;94866.90;;;10.41;52.80
77366;BME280;66430;50.182;11.704;2023-05-07T05:17:02;94867.74;;;10.47;52.33
77366;BME280;66430;50.182;11.704;2023-05-07T05:19:27;94865.74;;;10.49;52.10
77366;BME280;66430;50.182;11.704;2023-05-07T05:21:53;94864.12;;;10.73;51.77
77366;BME280;66430;50.182;11.704;2023-05-07T05:24:18;94871.87;;;10.71;51.39
77366;BME280;66430;50.182;11.704;2023-05-07T05:26:44;94871.91;;;10.64;51.32
77366;BME280;66430;50.182;11.704;2023-05-07T05:29:10;94871.76;;;11.01;51.01
77366;BME280;66430;50.182;11.704;2023-05-07T05:31:35;94871.56;;;10.79;50.92
77366;BME280;66430;50.182;11.704;2023-05-07T05:34:01;94876.46;;;10.55;50.95
77366;BME280;66430;50.182;11.704;2023-05-07T05:36:26;94877.03;;;10.80;50.63
77366;BME280;66430;50.182;11.704;2023-05-07T05:38:52;94876.47;;;10.27;51.36
77366;BME280;66430;50.182;11.704;2023-05-07T05:41:18;94880.62;;;11.15;51.35
77366;BME280;66430;50.182;11.704;2023-05-07T05:43:43;94876.61;;;10.95;51.35
77366;BME280;66430;50.182;11.704;2023-05-07T05:46:09;94877.29;;;10.82;51.16
77366;BME280;66430;50.182;11.704;2023-05-07T05:48:35;94878.45;;;10.79;50.78
77366;BME280;66430;50.182;11.704;2023-05-07T05:51:00;94879.02;;;10.59;51.35
77366;BME280;66430;50.182;11.704;2023-05-07T05:53:26;94875.38;;;10.93;50.93
77366;BME280;66430;50.182;11.704;2023-05-07T05:55:52;94873.91;;;10.78;51.13
77366;BME280;66430;50.182;11.704;2023-05-07T05:58:17;94872.72;;;11.03;51.03
77366;BME280;66430;50.182;11.704;2023-05-07T06:00:42;94872.87;;;10.79;51.44
77366;BME280;66430;50.182;11.704;2023-05-07T06:03:08;94870.00;;;10.97;52.48
77366;BME280;66430;50.182;11.704;2023-05-07T06:05:33;94871.40;;;11.29;51.55
77366;BME280;66430;50.182;11.704;2023-05-07T06:07:59;94874.30;;;11.19;51.34
77366;BME280;66430;50.182;11.704;2023-05-07T06:10:25;94876.22;;;11.21;50.53
77366;BME280;66430;50.182;11.704;2023-05-07T06:12:50;94877.38;;;10.95;51.54
77366;BME280;66430;50.182;11.704;2023-05-07T06:15:16;94864.64;;;10.49;52.16
77366;BME280;66430;50.182;11.704;2023-05-07T06:17:41;94871.29;;;10.68;52.13
77366;BME280;66430;50.182;11.704;2023-05-07T06:20:08;94880.91;;;11.06;51.26
77366;BME280;66430;50.182;11.704;2023-05-07T06:22:33;94891.29;;;10.91;51.77
77366;BME280;66430;50.182;11.704;2023-05-07T06:24:58;94887.68;;;10.69;52.14
77366;BME280;66430;50.182;11.704;2023-05-07T06:27:24;94885.26;;;10.37;52.46
77366;BME280;66430;50.182;11.704;2023-05-07T06:29:49;94884.05;;;10.48;51.82
77366;BME280;66430;50.182;11.704;2023-05-07T06:32:15;94889.84;;;10.58;51.33
77366;BME280;66430;50.182;11.704;2023-05-07T06:34:40;94890.76;;;10.71;52.01
77366;BME280;66430;50.182;11.704;2023-05-07T06:37:06;94892.31;;;10.26;52.09
77366;BME280;66430;50.182;11.704;2023-05-07T06:39:31;94895.50;;;10.17;52.85
77366;BME280;66430;50.182;11.704;2023-05-07T06:41:56;94896.46;;;10.55;53.44
77366;BME280;66430;50.182;11.704;2023-05-07T06:44:21;94907.82;;;10.79;54.12
77366;BME280;66430;50.182;11.704;2023-05-07T06:46:47;94900.70;;;10.49;53.45
77366;BME280;66430;50.182;11.704;2023-05-07T06:49:13;94907.00;;;10.74;52.21
77366;BME280;66430;50.182;11.704;2023-05-07T06:51:38;94905.63;;;10.88;53.11
77366;BME280;66430;50.182;11.704;2023-05-07T06:54:04;94907.22;;;10.92;52.55
77366;BME280;66430;50.182;11.704;2023-05-07T06:56:29;94907.28;;;10.97;52.02
77366;BME280;66430;50.182;11.704;2023-05-07T06:58:55;94912.20;;;11.52;50.84
77366;BME280;66430;50.182;11.704;2023-05-07T07:01:20;94910.66;;;11.47;50.67
77366;BME280;66430;50.182;11.704;2023-05-07T07:03:45;94909.13;;;12.15;49.89
77366;BME280;66430;50.182;11.704;2023-05-07T07:06:11;94912.30;;;12.47;49.41
77366;BME280;66430;50.182;11.704;2023-05-07T07:08:37;94912.67;;;12.57;50.49
77366;BME280;66430;50.182;11.704;2023-05-07T07:11:02;94907.14;;;12.83;49.45
77366;BME280;66430;50.182;11.704;2023-05-07T07:13:26;94904.25;;;12.78;48.85
77366;BME280;66430;50.182;11.704;2023-05-07T07:15:52;94907.29;;;12.91;49.04
77366;BME280;66430;50.182;11.704;2023-05-07T07:18:20;94907.03;;;13.07;49.94
77366;BME280;66430;50.182;11.704;2023-05-07T07:20:43;94906.52;;;13.35;49.19
77366;BME280;66430;50.182;11.704;2023-05-07T07:23:08;94903.71;;;13.07;47.90
77366;BME280;66430;50.182;11.704;2023-05-07T07:25:34;94908.49;;;12.97;48.74
77366;BME280;66430;50.182;11.704;2023-05-07T07:28:00;94903.77;;;12.91;49.68
77366;BME280;66430;50.182;11.704;2023-05-07T07:30:26;94909.20;;;13.20;48.00
77366;BME280;66430;50.182;11.704;2023-05-07T07:32:51;94902.75;;;13.14;47.74
77366;BME280;66430;50.182;11.704;2023-05-07T07:35:16;94906.52;;;12.83;47.48
77366;BME280;66430;50.182;11.704;2023-05-07T07:37:41;94914.42;;;12.44;48.54
77366;BME280;66430;50.182;11.704;2023-05-07T07:40:08;94910.18;;;12.59;47.94
77366;BME280;66430;50.182;11.704;2023-05-07T07:42:33;94910.94;;;12.68;48.77
77366;BME280;66430;50.182;11.704;2023-05-07T07:44:58;94911.23;;;12.72;49.29
77366;BME280;66430;50.182;11.704;2023-05-07T07:47:24;94908.62;;;12.89;48.66
77366;BME280;66430;50.182;11.704;2023-05-07T07:49:48;94915.03;;;13.00;48.38
77366;BME280;66430;50.182;11.704;2023-05-07T07:52:14;94916.43;;;12.55;47.02
77366;BME280;66430;50.182;11.704;2023-05-07T07:54:39;94915.53;;;12.69;47.80
77366;BME280;66430;50.182;11.704;2023-05-07T07:57:05;94916.31;;;12.59;48.42
77366;BME280;66430;50.182;11.704;2023-05-07T07:59:30;94918.05;;;12.48;48.65
77366;BME280;66430;50.182;11.704;2023-05-07T08:01:55;94915.54;;;12.44;48.53
77366;BME280;66430;50.182;11.704;2023-05-07T08:04:21;94912.51;;;12.56;48.14
77366;BME280;66430;50.182;11.704;2023-05-07T08:06:47;94912.52;;;12.93;48.05
77366;BME280;66430;50.182;11.704;2023-05-07T08:09:12;94918.17;;;12.83;47.29
77366;BME280;66430;50.182;11.704;2023-05-07T08:11:38;94910.62;;;13.04;48.31
77366;BME280;66430;50.182;11.704;2023-05-07T08:14:04;94910.38;;;13.25;47.27
77366;BME280;66430;50.182;11.704;2023-05-07T08:16:29;94912.50;;;13.37;46.53
77366;BME280;66430;50.182;11.704;2023-05-07T08:18:54;94916.25;;;13.67;46.86
77366;BME280;66430;50.182;11.704;2023-05-07T08:21:20;94916.65;;;13.68;46.77
77366;BME280;66430;50.182;11.704;2023-05-07T08:23:46;94923.69;;;13.29;47.32
77366;BME280;66430;50.182;11.704;2023-05-07T08:26:11;94928.75;;;13.52;45.96
77366;BME280;66430;50.182;11.704;2023-05-07T08:28:36;94931.12;;;13.89;47.08
77366;BME280;66430;50.182;11.704;2023-05-07T08:31:02;94926.47;;;14.18;46.27
77366;BME280;66430;50.182;11.704;2023-05-07T08:33:28;94925.82;;;13.77;45.47
77366;BME280;66430;50.182;11.704;2023-05-07T08:35:54;94929.46;;;14.08;45.40
77366;BME280;66430;50.182;11.704;2023-05-07T08:38:19;94928.31;;;13.94;44.45
77366;BME280;66430;50.182;11.704;2023-05-07T08:40:44;94918.73;;;13.73;45.49
77366;BME280;66430;50.182;11.704;2023-05-07T08:43:13;94923.34;;;13.78;45.31
77366;BME280;66430;50.182;11.704;2023-05-07T08:45:39;94918.03;;;14.06;45.47
77366;BME280;66430;50.182;11.704;2023-05-07T08:48:02;94919.15;;;14.22;46.39
77366;BME280;66430;50.182;11.704;2023-05-07T08:50:25;94916.65;;;14.54;44.00
77366;BME280;66430;50.182;11.704;2023-05-07T08:52:51;94918.08;;;14.35;44.76
77366;BME280;66430;50.182;11.704;2023-05-07T08:55:16;94919.05;;;13.97;45.36
77366;BME280;66430;50.182;11.704;2023-05-07T08:57:41;94919.86;;;14.68;45.65
77366;BME280;66430;50.182;11.704;2023-05-07T09:00:09;94925.73;;;14.06;46.36
77366;BME280;66430;50.182;11.704;2023-05-07T09:02:33;94932.76;;;14.18;44.33
77366;BME280;66430;50.182;11.704;2023-05-07T09:05:03;94929.28;;;14.38;44.91
77366;BME280;66430;50.182;11.704;2023-05-07T09:07:24;94932.02;;;14.06;44.19
77366;BME280;66430;50.182;11.704;2023-05-07T09:09:48;94929.46;;;14.68;44.98
77366;BME280;66430;50.182;11.704;2023-05-07T09:12:14;94930.46;;;14.88;44.82
77366;BME280;66430;50.182;11.704;2023-05-07T09:14:39;94931.24;;;15.21;44.01
77366;BME280;66430;50.182;11.704;2023-05-07T09:17:05;94934.06;;;15.17;42.31
77366;BME280;66430;50.182;11.704;2023-05-07T09:19:31;94925.87;;;15.87;44.09
77366;BME280;66430;50.182;11.704;2023-05-07T09:22:00;94934.13;;;15.87;41.55
77366;BME280;66430;50.182;11.704;2023-05-07T09:24:21;94935.60;;;15.97;41.76
77366;BME280;66430;50.182;11.704;2023-05-07T09:26:47;94933.07;;;15.87;41.06
77366;BME280;66430;50.182;11.704;2023-05-07T09:29:13;94927.75;;;15.83;40.97
77366;BME280;66430;50.182;11.704;2023-05-07T09:31:38;94923.98;;;15.49;41.82
77366;BME280;66430;50.182;11.704;2023-05-07T09:34:04;94922.86;;;15.38;43.04
77366;BME280;66430;50.182;11.704;2023-05-07T09:36:32;94923.10;;;15.55;42.09
77366;BME280;66430;50.182;11.704;2023-05-07T09:38:55;94923.49;;;15.86;41.75
77366;BME280;66430;50.182;11.704;2023-05-07T09:41:20;94935.79;;;15.81;41.54
77366;BME280;66430;50.182;11.704;2023-05-07T09:43:45;94931.91;;;16.26;41.95
77366;BME280;66430;50.182;11.704;2023-05-07T09:46:13;94929.83;;;15.63;40.79
77366;BME280;66430;50.182;11.704;2023-05-07T09:48:38;94932.80;;;16.28;42.08
77366;BME280;66430;50.182;11.704;2023-05-07T09:51:02;94933.70;;;16.33;42.39
77366;BME280;66430;50.182;11.704;2023-05-07T09:53:27;94934.69;;;16.32;43.09
77366;BME280;66430;50.182;11.704;2023-05-07T09:55:53;94937.78;;;16.52;42.09
77366;BME280;66430;50.182;11.704;2023-05-07T09:58:19;94933.51;;;17.02;39.87
77366;BME280;66430;50.182;11.704;2023-05-07T10:00:44;94936.19;;;16.37;41.10
77366;BME280;66430;50.182;11.704;2023-05-07T10:03:09;94930.53;;;16.21;40.07
77366;BME280;66430;50.182;11.704;2023-05-07T10:05:34;94930.55;;;16.99;40.27
77366;BME280;66430;50.182;11.704;2023-05-07T10:08:01;94932.49;;;16.49;40.28
77366;BME280;66430;50.182;11.704;2023-05-07T10:10:26;94935.73;;;16.50;41.69
77366;BME280;66430;50.182;11.704;2023-05-07T10:12:51;94935.65;;;16.50;39.75
77366;BME280;66430;50.182;11.704;2023-05-07T10:15:17;94926.24;;;16.80;39.83
77366;BME280;66430;50.182;11.704;2023-05-07T10:17:42;94932.72;;;16.19;39.06
77366;BME280;66430;50.182;11.704;2023-05-07T10:20:08;94931.58;;;16.76;38.53
77366;BME280;66430;50.182;11.704;2023-05-07T10:22:37;94921.19;;;16.64;40.05
77366;BME280;66430;50.182;11.704;2023-05-07T10:25:00;94921.27;;;16.94;40.13
77366;BME280;66430;50.182;11.704;2023-05-07T10:27:24;94918.19;;;16.82;39.10
77366;BME280;66430;50.182;11.704;2023-05-07T10:29:58;94914.83;;;17.22;39.10
77366;BME280;66430;50.182;11.704;2023-05-07T10:32:30;94922.82;;;16.79;38.70
77366;BME280;66430;50.182;11.704;2023-05-07T10:34:43;94926.11;;;16.75;39.55
77366;BME280;66430;50.182;11.704;2023-05-07T10:37:06;94919.91;;;17.16;39.44
77366;BME280;66430;50.182;11.704;2023-05-07T10:39:30;94923.70;;;16.41;38.98
77366;BME280;66430;50.182;11.704;2023-05-07T10:41:56;94915.02;;;16.72;40.31
77366;BME280;66430;50.182;11.704;2023-05-07T10:44:27;94916.23;;;16.92;39.24
77366;BME280;66430;50.182;11.704;2023-05-07T10:49:12;94920.28;;;16.53;39.95
77366;BME280;66430;50.182;11.704;2023-05-07T10:51:39;94922.21;;;16.34;38.44
77366;BME280;66430;50.182;11.704;2023-05-07T10:54:18;94922.30;;;15.94;39.52
77366;BME280;66430;50.182;11.704;2023-05-07T10:56:29;94919.18;;;15.89;40.60
77366;BME280;66430;50.182;11.704;2023-05-07T10:58:54;94921.66;;;16.48;40.66
77366;BME280;66430;50.182;11.704;2023-05-07T11:06:12;94915.51;;;16.42;40.22
77366;BME280;66430;50.182;11.704;2023-05-07T11:08:53;94922.57;;;16.44;40.07
77366;BME280;66430;50.182;11.704;2023-05-07T11:11:01;94919.33;;;16.38;40.55
77366;BME280;66430;50.182;11.704;2023-05-07T11:13:42;94916.44;;;16.87;40.13
77366;BME280;66430;50.182;11.704;2023-05-07T11:15:52;94919.92;;;16.93;40.74
77366;BME280;66430;50.182;11.704;2023-05-07T11:18:17;94916.12;;;16.86;40.81
77366;BME280;66430;50.182;11.704;2023-05-07T11:20:48;94912.75;;;16.75;39.29
77366;BME280;66430;50.182;11.704;2023-05-07T11:23:08;94912.48;;;16.85;39.52
77366;BME280;66430;50.182;11.704;2023-05-07T11:25:33;94913.15;;;17.12;42.46
77366;BME280;66430;50.182;11.704;2023-05-07T11:28:04;94918.61;;;17.11;38.73
77366;BME280;66430;50.182;11.704;2023-05-07T11:30:24;94920.75;;;17.43;37.59
77366;BME280;66430;50.182;11.704;2023-05-07T11:32:50;94913.90;;;17.11;39.94
77366;BME280;66430;50.182;11.704;2023-05-07T11:35:16;94905.68;;;17.61;39.07
77366;BME280;66430;50.182;11.704;2023-05-07T11:37:41;94908.71;;;17.45;39.76
77366;BME280;66430;50.182;11.704;2023-05-07T11:40:07;94907.53;;;17.69;40.04
77366;BME280;66430;50.182;11.704;2023-05-07T11:42:33;94909.61;;;17.93;39.35
77366;BME280;66430;50.182;11.704;2023-05-07T11:44:56;94913.86;;;18.15;38.91
77366;BME280;66430;50.182;11.704;2023-05-07T11:47:21;94913.27;;;17.64;38.76
77366;BME280;66430;50.182;11.704;2023-05-07T11:49:48;94910.65;;;17.29;38.49
77366;BME280;66430;50.182;11.704;2023-05-07T11:52:13;94910.72;;;17.62;38.83
77366;BME280;66430;50.182;11.704;2023-05-07T11:54:38;94909.45;;;17.65;39.40
77366;BME280;66430;50.182;11.704;2023-05-07T11:57:03;94908.45;;;17.82;37.97
77366;BME280;66430;50.182;11.704;2023-05-07T11:59:28;94914.21;;;17.55;39.54
77366;BME280;66430;50.182;11.704;2023-05-07T12:01:57;94915.70;;;18.01;37.59
77366;BME280;66430;50.182;11.704;2023-05-07T12:04:20;94918.72;;;18.41;38.28
77366;BME280;66430;50.182;11.704;2023-05-07T12:06:53;94921.22;;;18.64;36.66
77366;BME280;66430;50.182;11.704;2023-05-07T12:09:10;94920.04;;;19.05;36.46
77366;BME280;66430;50.182;11.704;2023-05-07T12:11:35;94924.59;;;19.07;35.11
77366;BME280;66430;50.182;11.704;2023-05-07T12:14:00;94918.81;;;18.85;36.94
77366;BME280;66430;50.182;11.704;2023-05-07T12:16:26;94921.59;;;19.46;34.86
77366;BME280;66430;50.182;11.704;2023-05-07T12:18:51;94924.24;;;18.75;35.21
77366;BME280;66430;50.182;11.704;2023-05-07T12:21:16;94921.20;;;18.81;35.93
77366;BME280;66430;50.182;11.704;2023-05-07T12:23:41;94927.02;;;18.74;37.56
77366;BME280;66430;50.182;11.704;2023-05-07T12:26:06;94921.61;;;19.23;36.88
77366;BME280;66430;50.182;11.704;2023-05-07T12:28:36;94919.21;;;19.32;37.59
77366;BME280;66430;50.182;11.704;2023-05-07T12:30:57;94920.09;;;19.20;35.62
77366;BME280;66430;50.182;11.704;2023-05-07T12:33:25;94913.72;;;18.99;35.18
77366;BME280;66430;50.182;11.704;2023-05-07T12:35:48;94912.41;;;18.64;36.93
77366;BME280;66430;50.182;11.704;2023-05-07T12:38:15;94917.23;;;18.84;37.92
77366;BME280;66430;50.182;11.704;2023-05-07T12:40:40;94914.66;;;19.31;36.48
77366;BME280;66430;50.182;11.704;2023-05-07T12:43:03;94915.08;;;18.79;36.11
77366;BME280;66430;50.182;11.704;2023-05-07T12:45:29;94916.10;;;18.54;36.53
77366;BME280;66430;50.182;11.704;2023-05-07T12:47:54;94912.95;;;18.42;37.43
77366;BME280;66430;50.182;11.704;2023-05-07T12:50:19;94916.37;;;18.65;37.87